sensor_id;sensor_type;location;lat;lon;timestamp;P1;durP1;ratioP1;P2;durP2;ratioP2
27558;SDS011;15002;52.028;5.670;2024-01-06T00:01:24;18.75;;;11.05;;
27558;SDS011;15002;52.028;5.670;2024-01-06T00:03:50;20.65;;;11.38;;
27558;SDS011;15002;52.028;5.670;2024-01-06T00:06:15;18.17;;;10.90;;
27558;SDS011;15002;52.028;5.670;2024-01-06T00:08:41;20.65;;;10.65;;
27558;SDS011;15002;52.028;5.670;2024-01-06T00:11:06;17.33;;;10.68;;
27558;SDS011;15002;52.028;5.670;2024-01-06T00:13:32;15.52;;;9.85;;
27558;SDS011;15002;52.028;5.670;2024-01-06T00:15:58;20.35;;;11.05;;
27558;SDS011;15002;52.028;5.670;2024-01-06T00:18:25;18.00;;;10.55;;
27558;SDS011;15002;52.028;5.670;2024-01-06T00:20:50;17.23;;;9.93;;
27558;SDS011;15002;52.028;5.670;2024-01-06T00:23:16;15.40;;;9.20;;
27558;SDS011;15002;52.028;5.670;2024-01-06T00:25:42;17.38;;;9.90;;
27558;SDS011;15002;52.028;5.670;2024-01-06T00:28:08;15.40;;;9.30;;
27558;SDS011;15002;52.028;5.670;2024-01-06T00:30:33;16.80;;;9.57;;
27558;SDS011;15002;52.028;5.670;2024-01-06T00:32:59;15.93;;;9.10;;
27558;SDS011;15002;52.028;5.670;2024-01-06T00:35:24;15.63;;;8.60;;
27558;SDS011;15002;52.028;5.670;2024-01-06T00:37:50;16.17;;;9.52;;
27558;SDS011;15002;52.028;5.670;2024-01-06T00:40:16;17.98;;;9.88;;
27558;SDS011;15002;52.028;5.670;2024-01-06T00:42:43;16.35;;;9.40;;
27558;SDS011;15002;52.028;5.670;2024-01-06T00:45:09;15.43;;;9.23;;
27558;SDS011;15002;52.028;5.670;2024-01-06T00:47:35;16.23;;;8.90;;
27558;SDS011;15002;52.028;5.670;2024-01-06T00:50:00;14.50;;;8.68;;
27558;SDS011;15002;52.028;5.670;2024-01-06T00:52:26;18.67;;;9.38;;
27558;SDS011;15002;52.028;5.670;2024-01-06T00:54:51;16.02;;;9.18;;
27558;SDS011;15002;52.028;5.670;2024-01-06T00:57:17;14.43;;;8.43;;
27558;SDS011;15002;52.028;5.670;2024-01-06T00:59:48;14.13;;;8.10;;
27558;SDS011;15002;52.028;5.670;2024-01-06T01:02:14;13.88;;;8.40;;
27558;SDS011;15002;52.028;5.670;2024-01-06T01:04:40;11.60;;;7.55;;
27558;SDS011;15002;52.028;5.670;2024-01-06T01:07:05;12.35;;;7.65;;
27558;SDS011;15002;52.028;5.670;2024-01-06T01:09:31;11.77;;;7.88;;
27558;SDS011;15002;52.028;5.670;2024-01-06T01:11:56;11.80;;;7.80;;
27558;SDS011;15002;52.028;5.670;2024-01-06T01:14:22;12.02;;;7.88;;
27558;SDS011;15002;52.028;5.670;2024-01-06T01:16:48;11.48;;;7.65;;
27558;SDS011;15002;52.028;5.670;2024-01-06T01:19:13;13.68;;;9.07;;
27558;SDS011;15002;52.028;5.670;2024-01-06T01:21:39;13.65;;;8.18;;
27558;SDS011;15002;52.028;5.670;2024-01-06T01:24:05;14.27;;;8.75;;
27558;SDS011;15002;52.028;5.670;2024-01-06T01:26:30;14.77;;;8.82;;
27558;SDS011;15002;52.028;5.670;2024-01-06T01:28:56;15.27;;;9.35;;
27558;SDS011;15002;52.028;5.670;2024-01-06T01:31:22;14.93;;;8.98;;
27558;SDS011;15002;52.028;5.670;2024-01-06T01:33:47;14.52;;;8.50;;
27558;SDS011;15002;52.028;5.670;2024-01-06T01:36:13;17.08;;;9.80;;
27558;SDS011;15002;52.028;5.670;2024-01-06T01:38:38;15.40;;;8.98;;
27558;SDS011;15002;52.028;5.670;2024-01-06T01:41:04;19.35;;;10.30;;
27558;SDS011;15002;52.028;5.670;2024-01-06T01:43:30;20.38;;;11.40;;
27558;SDS011;15002;52.028;5.670;2024-01-06T01:45:56;17.92;;;10.55;;
27558;SDS011;15002;52.028;5.670;2024-01-06T01:48:23;19.38;;;10.77;;
27558;SDS011;15002;52.028;5.670;2024-01-06T01:50:50;20.25;;;10.95;;
27558;SDS011;15002;52.028;5.670;2024-01-06T01:53:17;21.15;;;11.20;;
27558;SDS011;15002;52.028;5.670;2024-01-06T01:55:44;21.02;;;11.70;;
27558;SDS011;15002;52.028;5.670;2024-01-06T01:58:12;18.35;;;10.75;;
27558;SDS011;15002;52.028;5.670;2024-01-06T02:00:39;21.92;;;11.13;;
27558;SDS011;15002;52.028;5.670;2024-01-06T02:03:04;20.08;;;11.63;;
27558;SDS011;15002;52.028;5.670;2024-01-06T02:05:31;22.75;;;11.93;;
27558;SDS011;15002;52.028;5.670;2024-01-06T02:07:56;22.08;;;11.60;;
27558;SDS011;15002;52.028;5.670;2024-01-06T02:10:22;22.35;;;12.27;;
27558;SDS011;15002;52.028;5.670;2024-01-06T02:12:48;22.17;;;12.32;;
27558;SDS011;15002;52.028;5.670;2024-01-06T02:15:16;21.48;;;11.77;;
27558;SDS011;15002;52.028;5.670;2024-01-06T02:17:42;25.15;;;12.68;;
27558;SDS011;15002;52.028;5.670;2024-01-06T02:20:08;22.23;;;12.32;;
27558;SDS011;15002;52.028;5.670;2024-01-06T02:22:35;21.33;;;11.80;;
27558;SDS011;15002;52.028;5.670;2024-01-06T02:25:02;23.17;;;12.85;;
27558;SDS011;15002;52.028;5.670;2024-01-06T02:27:32;23.05;;;12.90;;
27558;SDS011;15002;52.028;5.670;2024-01-06T02:29:58;26.77;;;12.75;;
27558;SDS011;15002;52.028;5.670;2024-01-06T02:32:24;22.02;;;12.23;;
27558;SDS011;15002;52.028;5.670;2024-01-06T02:34:49;22.08;;;12.13;;
27558;SDS011;15002;52.028;5.670;2024-01-06T02:37:15;22.92;;;12.35;;
27558;SDS011;15002;52.028;5.670;2024-01-06T02:39:40;22.02;;;11.02;;
27558;SDS011;15002;52.028;5.670;2024-01-06T02:42:06;22.05;;;12.60;;
27558;SDS011;15002;52.028;5.670;2024-01-06T02:44:32;18.75;;;11.45;;
27558;SDS011;15002;52.028;5.670;2024-01-06T02:46:57;19.30;;;11.18;;
27558;SDS011;15002;52.028;5.670;2024-01-06T02:49:23;18.30;;;10.98;;
27558;SDS011;15002;52.028;5.670;2024-01-06T02:51:48;18.30;;;10.88;;
27558;SDS011;15002;52.028;5.670;2024-01-06T02:54:14;21.65;;;11.77;;
27558;SDS011;15002;52.028;5.670;2024-01-06T02:56:39;25.27;;;15.20;;
27558;SDS011;15002;52.028;5.670;2024-01-06T02:59:05;23.17;;;14.38;;
27558;SDS011;15002;52.028;5.670;2024-01-06T03:01:31;27.30;;;15.85;;
27558;SDS011;15002;52.028;5.670;2024-01-06T03:03:57;25.92;;;16.17;;
27558;SDS011;15002;52.028;5.670;2024-01-06T03:06:22;24.70;;;15.98;;
27558;SDS011;15002;52.028;5.670;2024-01-06T03:08:48;24.23;;;14.10;;
27558;SDS011;15002;52.028;5.670;2024-01-06T03:11:14;24.27;;;13.80;;
27558;SDS011;15002;52.028;5.670;2024-01-06T03:13:39;24.02;;;13.85;;
27558;SDS011;15002;52.028;5.670;2024-01-06T03:16:05;21.38;;;13.75;;
27558;SDS011;15002;52.028;5.670;2024-01-06T03:18:31;23.70;;;13.15;;
27558;SDS011;15002;52.028;5.670;2024-01-06T03:20:56;22.50;;;12.95;;
27558;SDS011;15002;52.028;5.670;2024-01-06T03:23:22;25.95;;;13.57;;
27558;SDS011;15002;52.028;5.670;2024-01-06T03:25:48;25.38;;;14.25;;
27558;SDS011;15002;52.028;5.670;2024-01-06T03:28:13;22.48;;;12.30;;
27558;SDS011;15002;52.028;5.670;2024-01-06T03:30:39;25.40;;;13.48;;
27558;SDS011;15002;52.028;5.670;2024-01-06T03:33:05;22.58;;;13.20;;
27558;SDS011;15002;52.028;5.670;2024-01-06T03:35:31;24.90;;;13.40;;
27558;SDS011;15002;52.028;5.670;2024-01-06T03:37:57;24.35;;;14.13;;
27558;SDS011;15002;52.028;5.670;2024-01-06T03:40:22;24.33;;;13.13;;
27558;SDS011;15002;52.028;5.670;2024-01-06T03:42:48;25.90;;;13.82;;
27558;SDS011;15002;52.028;5.670;2024-01-06T03:45:13;23.65;;;12.75;;
27558;SDS011;15002;52.028;5.670;2024-01-06T03:47:39;25.65;;;13.77;;
27558;SDS011;15002;52.028;5.670;2024-01-06T03:50:05;24.40;;;13.38;;
27558;SDS011;15002;52.028;5.670;2024-01-06T03:52:31;24.75;;;14.38;;
27558;SDS011;15002;52.028;5.670;2024-01-06T03:54:56;25.55;;;14.20;;
27558;SDS011;15002;52.028;5.670;2024-01-06T03:57:22;26.05;;;14.23;;
27558;SDS011;15002;52.028;5.670;2024-01-06T03:59:48;26.35;;;13.85;;
27558;SDS011;15002;52.028;5.670;2024-01-06T04:02:13;24.88;;;13.73;;
27558;SDS011;15002;52.028;5.670;2024-01-06T04:04:39;26.88;;;14.77;;
27558;SDS011;15002;52.028;5.670;2024-01-06T04:07:04;27.73;;;14.90;;
27558;SDS011;15002;52.028;5.670;2024-01-06T04:09:31;24.67;;;13.38;;
27558;SDS011;15002;52.028;5.670;2024-01-06T04:11:57;26.25;;;13.75;;
27558;SDS011;15002;52.028;5.670;2024-01-06T04:14:23;29.55;;;14.32;;
27558;SDS011;15002;52.028;5.670;2024-01-06T04:16:48;27.25;;;15.07;;
27558;SDS011;15002;52.028;5.670;2024-01-06T04:19:14;27.67;;;14.45;;
27558;SDS011;15002;52.028;5.670;2024-01-06T04:21:40;30.90;;;15.63;;
27558;SDS011;15002;52.028;5.670;2024-01-06T04:24:06;29.33;;;15.00;;
27558;SDS011;15002;52.028;5.670;2024-01-06T04:26:31;28.10;;;14.57;;
27558;SDS011;15002;52.028;5.670;2024-01-06T04:28:57;27.13;;;13.98;;
27558;SDS011;15002;52.028;5.670;2024-01-06T04:31:22;27.58;;;13.95;;
27558;SDS011;15002;52.028;5.670;2024-01-06T04:33:48;23.35;;;13.10;;
27558;SDS011;15002;52.028;5.670;2024-01-06T04:36:14;24.40;;;13.23;;
27558;SDS011;15002;52.028;5.670;2024-01-06T04:38:39;23.73;;;12.75;;
27558;SDS011;15002;52.028;5.670;2024-01-06T04:41:05;24.73;;;13.43;;
27558;SDS011;15002;52.028;5.670;2024-01-06T04:43:30;22.80;;;11.68;;
27558;SDS011;15002;52.028;5.670;2024-01-06T04:45:56;25.20;;;11.55;;
27558;SDS011;15002;52.028;5.670;2024-01-06T04:48:23;18.77;;;10.15;;
27558;SDS011;15002;52.028;5.670;2024-01-06T04:50:49;17.15;;;9.60;;
27558;SDS011;15002;52.028;5.670;2024-01-06T04:53:14;15.45;;;9.00;;
27558;SDS011;15002;52.028;5.670;2024-01-06T04:55:40;19.80;;;9.80;;
27558;SDS011;15002;52.028;5.670;2024-01-06T04:58:06;19.48;;;9.73;;
27558;SDS011;15002;52.028;5.670;2024-01-06T05:00:31;16.73;;;9.38;;
27558;SDS011;15002;52.028;5.670;2024-01-06T05:02:57;18.40;;;9.95;;
27558;SDS011;15002;52.028;5.670;2024-01-06T05:05:23;15.93;;;9.38;;
27558;SDS011;15002;52.028;5.670;2024-01-06T05:07:48;15.38;;;8.68;;
27558;SDS011;15002;52.028;5.670;2024-01-06T05:10:14;13.93;;;8.07;;
27558;SDS011;15002;52.028;5.670;2024-01-06T05:12:39;16.38;;;8.05;;
27558;SDS011;15002;52.028;5.670;2024-01-06T05:15:05;15.60;;;8.43;;
27558;SDS011;15002;52.028;5.670;2024-01-06T05:17:31;15.00;;;8.88;;
27558;SDS011;15002;52.028;5.670;2024-01-06T05:19:57;16.33;;;9.00;;
27558;SDS011;15002;52.028;5.670;2024-01-06T05:22:22;15.02;;;8.60;;
27558;SDS011;15002;52.028;5.670;2024-01-06T05:24:48;18.02;;;9.40;;
27558;SDS011;15002;52.028;5.670;2024-01-06T05:27:18;15.98;;;8.90;;
27558;SDS011;15002;52.028;5.670;2024-01-06T05:29:43;16.33;;;9.30;;
27558;SDS011;15002;52.028;5.670;2024-01-06T05:32:09;16.70;;;9.90;;
27558;SDS011;15002;52.028;5.670;2024-01-06T05:34:35;16.17;;;9.23;;
27558;SDS011;15002;52.028;5.670;2024-01-06T05:37:00;18.35;;;10.68;;
27558;SDS011;15002;52.028;5.670;2024-01-06T05:39:26;17.05;;;9.68;;
27558;SDS011;15002;52.028;5.670;2024-01-06T05:41:52;16.35;;;9.55;;
27558;SDS011;15002;52.028;5.670;2024-01-06T05:44:18;15.32;;;9.80;;
27558;SDS011;15002;52.028;5.670;2024-01-06T05:46:44;17.02;;;10.35;;
27558;SDS011;15002;52.028;5.670;2024-01-06T05:49:09;15.73;;;9.38;;
27558;SDS011;15002;52.028;5.670;2024-01-06T05:51:35;18.20;;;10.27;;
27558;SDS011;15002;52.028;5.670;2024-01-06T05:54:01;19.15;;;10.52;;
27558;SDS011;15002;52.028;5.670;2024-01-06T05:56:27;18.20;;;10.50;;
27558;SDS011;15002;52.028;5.670;2024-01-06T05:58:53;18.25;;;10.60;;
27558;SDS011;15002;52.028;5.670;2024-01-06T06:01:20;16.20;;;10.48;;
27558;SDS011;15002;52.028;5.670;2024-01-06T06:03:46;17.25;;;9.85;;
27558;SDS011;15002;52.028;5.670;2024-01-06T06:06:12;17.02;;;10.30;;
27558;SDS011;15002;52.028;5.670;2024-01-06T06:08:40;16.13;;;10.48;;
27558;SDS011;15002;52.028;5.670;2024-01-06T06:11:07;16.15;;;9.60;;
27558;SDS011;15002;52.028;5.670;2024-01-06T06:13:39;15.80;;;9.73;;
27558;SDS011;15002;52.028;5.670;2024-01-06T06:16:06;15.60;;;10.25;;
27558;SDS011;15002;52.028;5.670;2024-01-06T06:18:34;15.45;;;9.95;;
27558;SDS011;15002;52.028;5.670;2024-01-06T06:21:00;15.73;;;10.30;;
27558;SDS011;15002;52.028;5.670;2024-01-06T06:23:29;14.88;;;9.93;;
27558;SDS011;15002;52.028;5.670;2024-01-06T06:25:58;15.65;;;10.15;;
27558;SDS011;15002;52.028;5.670;2024-01-06T06:28:24;18.02;;;10.55;;
27558;SDS011;15002;52.028;5.670;2024-01-06T06:30:50;17.30;;;10.77;;
27558;SDS011;15002;52.028;5.670;2024-01-06T06:33:16;17.88;;;10.25;;
27558;SDS011;15002;52.028;5.670;2024-01-06T06:35:42;15.68;;;10.30;;
27558;SDS011;15002;52.028;5.670;2024-01-06T06:38:07;16.05;;;10.55;;
27558;SDS011;15002;52.028;5.670;2024-01-06T06:40:33;18.50;;;10.70;;
27558;SDS011;15002;52.028;5.670;2024-01-06T06:43:00;18.60;;;11.07;;
27558;SDS011;15002;52.028;5.670;2024-01-06T06:45:25;14.93;;;10.32;;
27558;SDS011;15002;52.028;5.670;2024-01-06T06:47:51;15.98;;;10.05;;
27558;SDS011;15002;52.028;5.670;2024-01-06T06:50:17;17.38;;;10.77;;
27558;SDS011;15002;52.028;5.670;2024-01-06T06:52:44;19.48;;;11.88;;
27558;SDS011;15002;52.028;5.670;2024-01-06T06:55:09;16.25;;;10.52;;
27558;SDS011;15002;52.028;5.670;2024-01-06T06:57:35;16.90;;;10.43;;
27558;SDS011;15002;52.028;5.670;2024-01-06T07:00:01;18.55;;;10.75;;
27558;SDS011;15002;52.028;5.670;2024-01-06T07:02:27;16.70;;;10.60;;
27558;SDS011;15002;52.028;5.670;2024-01-06T07:04:53;17.98;;;11.18;;
27558;SDS011;15002;52.028;5.670;2024-01-06T07:07:19;17.30;;;10.75;;
27558;SDS011;15002;52.028;5.670;2024-01-06T07:09:44;20.10;;;11.63;;
27558;SDS011;15002;52.028;5.670;2024-01-06T07:12:10;18.25;;;10.38;;
27558;SDS011;15002;52.028;5.670;2024-01-06T07:14:35;16.60;;;9.93;;
27558;SDS011;15002;52.028;5.670;2024-01-06T07:17:02;15.55;;;9.15;;
27558;SDS011;15002;52.028;5.670;2024-01-06T07:19:29;16.10;;;10.30;;
27558;SDS011;15002;52.028;5.670;2024-01-06T07:21:56;17.00;;;9.68;;
27558;SDS011;15002;52.028;5.670;2024-01-06T07:24:21;14.68;;;9.50;;
27558;SDS011;15002;52.028;5.670;2024-01-06T07:26:47;16.60;;;10.02;;
27558;SDS011;15002;52.028;5.670;2024-01-06T07:29:12;15.30;;;9.25;;
27558;SDS011;15002;52.028;5.670;2024-01-06T07:31:38;15.27;;;10.00;;
27558;SDS011;15002;52.028;5.670;2024-01-06T07:34:04;16.58;;;10.23;;
27558;SDS011;15002;52.028;5.670;2024-01-06T07:36:29;16.67;;;10.10;;
27558;SDS011;15002;52.028;5.670;2024-01-06T07:38:55;16.08;;;10.02;;
27558;SDS011;15002;52.028;5.670;2024-01-06T07:41:21;16.58;;;10.23;;
27558;SDS011;15002;52.028;5.670;2024-01-06T07:43:47;17.63;;;10.02;;
27558;SDS011;15002;52.028;5.670;2024-01-06T07:46:12;15.40;;;10.35;;
27558;SDS011;15002;52.028;5.670;2024-01-06T07:48:38;14.98;;;9.32;;
27558;SDS011;15002;52.028;5.670;2024-01-06T07:51:04;17.13;;;10.48;;
27558;SDS011;15002;52.028;5.670;2024-01-06T07:53:30;15.50;;;9.52;;
27558;SDS011;15002;52.028;5.670;2024-01-06T07:55:55;15.90;;;9.88;;
27558;SDS011;15002;52.028;5.670;2024-01-06T07:58:21;17.77;;;10.27;;
27558;SDS011;15002;52.028;5.670;2024-01-06T08:00:47;16.27;;;10.50;;
27558;SDS011;15002;52.028;5.670;2024-01-06T08:03:13;20.42;;;10.75;;
27558;SDS011;15002;52.028;5.670;2024-01-06T08:05:38;18.58;;;10.65;;
27558;SDS011;15002;52.028;5.670;2024-01-06T08:08:04;17.77;;;10.25;;
27558;SDS011;15002;52.028;5.670;2024-01-06T08:10:30;20.13;;;11.05;;
27558;SDS011;15002;52.028;5.670;2024-01-06T08:12:56;22.40;;;11.10;;
27558;SDS011;15002;52.028;5.670;2024-01-06T08:15:22;16.65;;;10.57;;
27558;SDS011;15002;52.028;5.670;2024-01-06T08:17:47;18.48;;;10.15;;
27558;SDS011;15002;52.028;5.670;2024-01-06T08:20:13;20.67;;;10.95;;
27558;SDS011;15002;52.028;5.670;2024-01-06T08:22:39;17.48;;;10.07;;
27558;SDS011;15002;52.028;5.670;2024-01-06T08:25:04;20.40;;;11.15;;
27558;SDS011;15002;52.028;5.670;2024-01-06T08:27:33;18.33;;;11.15;;
27558;SDS011;15002;52.028;5.670;2024-01-06T08:30:00;20.23;;;11.40;;
27558;SDS011;15002;52.028;5.670;2024-01-06T08:32:26;21.77;;;10.98;;
27558;SDS011;15002;52.028;5.670;2024-01-06T08:34:51;21.60;;;11.23;;
27558;SDS011;15002;52.028;5.670;2024-01-06T08:37:17;20.83;;;11.10;;
27558;SDS011;15002;52.028;5.670;2024-01-06T08:39:43;18.10;;;10.63;;
27558;SDS011;15002;52.028;5.670;2024-01-06T08:42:08;19.77;;;10.77;;
27558;SDS011;15002;52.028;5.670;2024-01-06T08:44:34;16.80;;;10.77;;
27558;SDS011;15002;52.028;5.670;2024-01-06T08:47:00;20.77;;;11.00;;
27558;SDS011;15002;52.028;5.670;2024-01-06T08:49:25;16.15;;;10.73;;
27558;SDS011;15002;52.028;5.670;2024-01-06T08:51:51;21.52;;;11.63;;
27558;SDS011;15002;52.028;5.670;2024-01-06T08:54:16;17.58;;;10.40;;
27558;SDS011;15002;52.028;5.670;2024-01-06T08:56:42;17.50;;;10.52;;
27558;SDS011;15002;52.028;5.670;2024-01-06T08:59:08;16.00;;;10.43;;
27558;SDS011;15002;52.028;5.670;2024-01-06T09:01:34;16.95;;;10.77;;
27558;SDS011;15002;52.028;5.670;2024-01-06T09:04:01;17.92;;;10.80;;
27558;SDS011;15002;52.028;5.670;2024-01-06T09:06:27;19.67;;;11.05;;
27558;SDS011;15002;52.028;5.670;2024-01-06T09:08:53;19.73;;;11.32;;
27558;SDS011;15002;52.028;5.670;2024-01-06T09:11:19;18.40;;;10.57;;
27558;SDS011;15002;52.028;5.670;2024-01-06T09:13:44;20.63;;;11.18;;
27558;SDS011;15002;52.028;5.670;2024-01-06T09:16:10;18.85;;;10.95;;
27558;SDS011;15002;52.028;5.670;2024-01-06T09:18:36;20.27;;;11.20;;
27558;SDS011;15002;52.028;5.670;2024-01-06T09:21:01;19.35;;;10.90;;
27558;SDS011;15002;52.028;5.670;2024-01-06T09:23:28;19.02;;;11.32;;
27558;SDS011;15002;52.028;5.670;2024-01-06T09:25:53;16.92;;;10.30;;
27558;SDS011;15002;52.028;5.670;2024-01-06T09:28:19;17.25;;;10.52;;
27558;SDS011;15002;52.028;5.670;2024-01-06T09:30:46;15.40;;;10.30;;
27558;SDS011;15002;52.028;5.670;2024-01-06T09:33:12;15.82;;;10.45;;
27558;SDS011;15002;52.028;5.670;2024-01-06T09:35:40;15.45;;;9.77;;
27558;SDS011;15002;52.028;5.670;2024-01-06T09:38:07;18.80;;;10.05;;
27558;SDS011;15002;52.028;5.670;2024-01-06T09:40:32;13.52;;;9.55;;
27558;SDS011;15002;52.028;5.670;2024-01-06T09:43:00;15.65;;;9.98;;
27558;SDS011;15002;52.028;5.670;2024-01-06T09:45:27;15.13;;;10.00;;
27558;SDS011;15002;52.028;5.670;2024-01-06T09:47:54;18.60;;;11.07;;
27558;SDS011;15002;52.028;5.670;2024-01-06T09:50:20;17.88;;;9.93;;
27558;SDS011;15002;52.028;5.670;2024-01-06T09:52:47;13.88;;;9.32;;
27558;SDS011;15002;52.028;5.670;2024-01-06T09:55:25;17.95;;;10.85;;
27558;SDS011;15002;52.028;5.670;2024-01-06T09:57:54;16.88;;;10.93;;
27558;SDS011;15002;52.028;5.670;2024-01-06T10:00:20;16.30;;;10.02;;
27558;SDS011;15002;52.028;5.670;2024-01-06T10:02:49;13.77;;;8.98;;
27558;SDS011;15002;52.028;5.670;2024-01-06T10:05:16;12.20;;;9.25;;
27558;SDS011;15002;52.028;5.670;2024-01-06T10:07:43;16.38;;;9.98;;
27558;SDS011;15002;52.028;5.670;2024-01-06T10:10:09;12.50;;;8.65;;
27558;SDS011;15002;52.028;5.670;2024-01-06T10:12:38;12.57;;;8.18;;
27558;SDS011;15002;52.028;5.670;2024-01-06T10:15:05;16.05;;;10.00;;
27558;SDS011;15002;52.028;5.670;2024-01-06T10:17:32;13.70;;;8.57;;
27558;SDS011;15002;52.028;5.670;2024-01-06T10:19:59;13.95;;;9.82;;
27558;SDS011;15002;52.028;5.670;2024-01-06T10:22:25;14.98;;;10.25;;
27558;SDS011;15002;52.028;5.670;2024-01-06T10:24:51;13.25;;;8.77;;
27558;SDS011;15002;52.028;5.670;2024-01-06T10:27:16;14.50;;;8.93;;
27558;SDS011;15002;52.028;5.670;2024-01-06T10:29:42;13.70;;;9.80;;
27558;SDS011;15002;52.028;5.670;2024-01-06T10:32:08;16.65;;;9.65;;
27558;SDS011;15002;52.028;5.670;2024-01-06T10:34:33;14.60;;;9.88;;
27558;SDS011;15002;52.028;5.670;2024-01-06T10:37:01;14.18;;;9.13;;
27558;SDS011;15002;52.028;5.670;2024-01-06T10:39:27;16.10;;;9.63;;
27558;SDS011;15002;52.028;5.670;2024-01-06T10:41:54;13.38;;;9.07;;
27558;SDS011;15002;52.028;5.670;2024-01-06T10:44:21;14.02;;;9.07;;
27558;SDS011;15002;52.028;5.670;2024-01-06T10:46:48;14.80;;;9.75;;
27558;SDS011;15002;52.028;5.670;2024-01-06T10:49:15;14.38;;;9.85;;
27558;SDS011;15002;52.028;5.670;2024-01-06T10:51:46;12.80;;;8.98;;
27558;SDS011;15002;52.028;5.670;2024-01-06T10:54:13;15.30;;;9.57;;
27558;SDS011;15002;52.028;5.670;2024-01-06T10:56:41;14.85;;;9.93;;
27558;SDS011;15002;52.028;5.670;2024-01-06T10:59:08;12.30;;;9.77;;
27558;SDS011;15002;52.028;5.670;2024-01-06T11:01:36;15.23;;;10.18;;
27558;SDS011;15002;52.028;5.670;2024-01-06T11:04:02;15.27;;;9.40;;
27558;SDS011;15002;52.028;5.670;2024-01-06T11:06:31;15.85;;;10.07;;
27558;SDS011;15002;52.028;5.670;2024-01-06T11:11:48;14.75;;;9.48;;
27558;SDS011;15002;52.028;5.670;2024-01-06T11:14:37;14.10;;;9.55;;
27558;SDS011;15002;52.028;5.670;2024-01-06T11:17:02;15.38;;;10.02;;
27558;SDS011;15002;52.028;5.670;2024-01-06T11:22:19;15.77;;;9.98;;
27558;SDS011;15002;52.028;5.670;2024-01-06T11:24:50;15.27;;;9.75;;
27558;SDS011;15002;52.028;5.670;2024-01-06T11:27:22;15.60;;;10.40;;
27558;SDS011;15002;52.028;5.670;2024-01-06T11:29:54;14.88;;;9.60;;
27558;SDS011;15002;52.028;5.670;2024-01-06T11:34:50;16.48;;;9.82;;
27558;SDS011;15002;52.028;5.670;2024-01-06T11:37:52;18.20;;;10.73;;
27558;SDS011;15002;52.028;5.670;2024-01-06T11:43:01;14.13;;;9.48;;
27558;SDS011;15002;52.028;5.670;2024-01-06T11:45:30;13.95;;;10.05;;
27558;SDS011;15002;52.028;5.670;2024-01-06T11:48:00;16.27;;;10.00;;
27558;SDS011;15002;52.028;5.670;2024-01-06T11:50:33;16.38;;;10.05;;
27558;SDS011;15002;52.028;5.670;2024-01-06T11:53:03;16.33;;;9.63;;
27558;SDS011;15002;52.028;5.670;2024-01-06T11:55:29;15.82;;;10.60;;
27558;SDS011;15002;52.028;5.670;2024-01-06T11:57:59;15.07;;;10.18;;
27558;SDS011;15002;52.028;5.670;2024-01-06T12:00:30;16.02;;;10.63;;
27558;SDS011;15002;52.028;5.670;2024-01-06T12:02:57;16.73;;;11.05;;
27558;SDS011;15002;52.028;5.670;2024-01-06T12:05:24;18.20;;;10.93;;
27558;SDS011;15002;52.028;5.670;2024-01-06T12:07:58;18.35;;;10.70;;
27558;SDS011;15002;52.028;5.670;2024-01-06T12:10:25;17.88;;;11.25;;
27558;SDS011;15002;52.028;5.670;2024-01-06T12:12:59;17.90;;;11.48;;
27558;SDS011;15002;52.028;5.670;2024-01-06T12:15:26;16.38;;;10.60;;
27558;SDS011;15002;52.028;5.670;2024-01-06T12:17:53;14.75;;;10.80;;
27558;SDS011;15002;52.028;5.670;2024-01-06T12:20:19;19.02;;;10.65;;
27558;SDS011;15002;52.028;5.670;2024-01-06T12:22:47;18.95;;;12.20;;
27558;SDS011;15002;52.028;5.670;2024-01-06T12:25:14;18.23;;;11.85;;
27558;SDS011;15002;52.028;5.670;2024-01-06T12:27:43;19.52;;;11.52;;
27558;SDS011;15002;52.028;5.670;2024-01-06T12:30:19;19.75;;;11.93;;
27558;SDS011;15002;52.028;5.670;2024-01-06T12:32:46;17.40;;;11.55;;
27558;SDS011;15002;52.028;5.670;2024-01-06T12:35:14;21.70;;;12.23;;
27558;SDS011;15002;52.028;5.670;2024-01-06T12:37:41;23.80;;;12.40;;
27558;SDS011;15002;52.028;5.670;2024-01-06T12:40:08;17.50;;;11.30;;
27558;SDS011;15002;52.028;5.670;2024-01-06T12:42:35;20.95;;;12.38;;
27558;SDS011;15002;52.028;5.670;2024-01-06T12:45:01;22.30;;;12.77;;
27558;SDS011;15002;52.028;5.670;2024-01-06T12:47:27;21.48;;;12.07;;
27558;SDS011;15002;52.028;5.670;2024-01-06T12:49:53;19.40;;;12.48;;
27558;SDS011;15002;52.028;5.670;2024-01-06T12:52:19;21.48;;;13.20;;
27558;SDS011;15002;52.028;5.670;2024-01-06T12:54:44;18.85;;;11.85;;
27558;SDS011;15002;52.028;5.670;2024-01-06T12:57:10;24.58;;;12.68;;
27558;SDS011;15002;52.028;5.670;2024-01-06T12:59:36;18.80;;;11.48;;
27558;SDS011;15002;52.028;5.670;2024-01-06T13:02:02;16.50;;;11.18;;
27558;SDS011;15002;52.028;5.670;2024-01-06T13:04:28;17.60;;;11.70;;
27558;SDS011;15002;52.028;5.670;2024-01-06T13:06:54;16.88;;;11.07;;
27558;SDS011;15002;52.028;5.670;2024-01-06T13:09:19;16.83;;;11.20;;
27558;SDS011;15002;52.028;5.670;2024-01-06T13:11:48;20.83;;;12.93;;
27558;SDS011;15002;52.028;5.670;2024-01-06T13:14:15;17.55;;;11.68;;
27558;SDS011;15002;52.028;5.670;2024-01-06T13:16:41;20.17;;;12.40;;
27558;SDS011;15002;52.028;5.670;2024-01-06T13:19:07;18.70;;;12.38;;
27558;SDS011;15002;52.028;5.670;2024-01-06T13:21:32;19.92;;;12.60;;
27558;SDS011;15002;52.028;5.670;2024-01-06T13:24:00;21.05;;;13.30;;
27558;SDS011;15002;52.028;5.670;2024-01-06T13:26:27;19.05;;;12.70;;
27558;SDS011;15002;52.028;5.670;2024-01-06T13:28:53;23.15;;;13.52;;
27558;SDS011;15002;52.028;5.670;2024-01-06T13:31:19;22.95;;;13.52;;
27558;SDS011;15002;52.028;5.670;2024-01-06T13:33:45;23.67;;;13.45;;
27558;SDS011;15002;52.028;5.670;2024-01-06T13:36:11;20.67;;;13.15;;
27558;SDS011;15002;52.028;5.670;2024-01-06T13:38:37;25.52;;;14.02;;
27558;SDS011;15002;52.028;5.670;2024-01-06T13:41:03;26.33;;;14.15;;
27558;SDS011;15002;52.028;5.670;2024-01-06T13:43:29;20.83;;;13.38;;
27558;SDS011;15002;52.028;5.670;2024-01-06T13:45:56;22.30;;;13.60;;
27558;SDS011;15002;52.028;5.670;2024-01-06T13:48:22;24.20;;;13.98;;
27558;SDS011;15002;52.028;5.670;2024-01-06T13:50:48;25.50;;;14.82;;
27558;SDS011;15002;52.028;5.670;2024-01-06T13:53:14;23.95;;;14.57;;
27558;SDS011;15002;52.028;5.670;2024-01-06T13:55:40;21.85;;;12.82;;
27558;SDS011;15002;52.028;5.670;2024-01-06T13:58:06;26.20;;;15.90;;
27558;SDS011;15002;52.028;5.670;2024-01-06T14:00:34;24.33;;;14.80;;
27558;SDS011;15002;52.028;5.670;2024-01-06T14:03:00;23.35;;;14.40;;
27558;SDS011;15002;52.028;5.670;2024-01-06T14:05:26;23.85;;;14.98;;
27558;SDS011;15002;52.028;5.670;2024-01-06T14:07:52;26.75;;;15.55;;
27558;SDS011;15002;52.028;5.670;2024-01-06T14:10:18;26.48;;;15.40;;
27558;SDS011;15002;52.028;5.670;2024-01-06T14:12:44;25.63;;;14.63;;
27558;SDS011;15002;52.028;5.670;2024-01-06T14:15:10;23.25;;;13.90;;
27558;SDS011;15002;52.028;5.670;2024-01-06T14:17:36;23.90;;;14.15;;
27558;SDS011;15002;52.028;5.670;2024-01-06T14:20:02;26.20;;;14.68;;
27558;SDS011;15002;52.028;5.670;2024-01-06T14:22:29;25.45;;;14.02;;
27558;SDS011;15002;52.028;5.670;2024-01-06T14:24:54;25.88;;;14.55;;
27558;SDS011;15002;52.028;5.670;2024-01-06T14:27:20;20.58;;;13.43;;
27558;SDS011;15002;52.028;5.670;2024-01-06T14:29:47;22.42;;;14.38;;
27558;SDS011;15002;52.028;5.670;2024-01-06T14:32:13;25.25;;;14.07;;